sensor_id;sensor_type;location;lat;lon;timestamp;pressure;altitude;pressure_sealevel;temperature;humidity
68141;BME280;54941;52.220;104.306;2024-01-07T00:00:33;96276.25;;;-14.35;75.09
68141;BME280;54941;52.220;104.306;2024-01-07T00:02:59;96265.34;;;-14.34;74.62
68141;BME280;54941;52.220;104.306;2024-01-07T00:05:25;96265.34;;;-14.34;74.55
68141;BME280;54941;52.220;104.306;2024-01-07T00:07:52;96269.97;;;-14.40;74.83
68141;BME280;54941;52.220;104.306;2024-01-07T00:10:18;96269.38;;;-14.36;74.62
68141;BME280;54941;52.220;104.306;2024-01-07T00:12:44;96268.03;;;-14.44;74.71
68141;BME280;54941;52.220;104.306;2024-01-07T00:15:10;96270.72;;;-14.41;74.38
68141;BME280;54941;52.220;104.306;2024-01-07T00:17:38;96277.56;;;-14.40;74.70
68141;BME280;54941;52.220;104.306;2024-01-07T00:20:06;96270.94;;;-14.38;74.28
68141;BME280;54941;52.220;104.306;2024-01-07T00:22:32;96270.84;;;-14.39;74.71
68141;BME280;54941;52.220;104.306;2024-01-07T00:24:58;96267.19;;;-14.31;74.80
68141;BME280;54941;52.220;104.306;2024-01-07T00:27:25;96260.34;;;-14.32;74.57
68141;BME280;54941;52.220;104.306;2024-01-07T00:29:51;96273.47;;;-14.38;74.69
68141;BME280;54941;52.220;104.306;2024-01-07T00:32:17;96267.16;;;-14.45;74.91
68141;BME280;54941;52.220;104.306;2024-01-07T00:34:45;96265.66;;;-14.41;74.78
68141;BME280;54941;52.220;104.306;2024-01-07T00:37:11;96267.16;;;-14.45;74.86
68141;BME280;54941;52.220;104.306;2024-01-07T00:39:37;96267.31;;;-14.41;74.70
68141;BME280;54941;52.220;104.306;2024-01-07T00:42:04;96272.69;;;-14.37;75.24
68141;BME280;54941;52.220;104.306;2024-01-07T00:44:30;96269.56;;;-14.46;75.33
68141;BME280;54941;52.220;104.306;2024-01-07T00:46:56;96276.47;;;-14.32;75.68
68141;BME280;54941;52.220;104.306;2024-01-07T00:49:23;96274.47;;;-14.36;75.34
68141;BME280;54941;52.220;104.306;2024-01-07T00:51:50;96274.03;;;-14.30;74.97
68141;BME280;54941;52.220;104.306;2024-01-07T00:54:17;96268.97;;;-14.30;75.19
68141;BME280;54941;52.220;104.306;2024-01-07T00:56:43;96273.34;;;-14.28;74.98
68141;BME280;54941;52.220;104.306;2024-01-07T00:59:09;96282.81;;;-14.25;75.10
68141;BME280;54941;52.220;104.306;2024-01-07T01:01:35;96258.13;;;-14.28;75.20
68141;BME280;54941;52.220;104.306;2024-01-07T01:04:02;96281.94;;;-14.14;75.04
68141;BME280;54941;52.220;104.306;2024-01-07T01:06:28;96276.75;;;-14.16;75.27
68141;BME280;54941;52.220;104.306;2024-01-07T01:08:56;96272.44;;;-14.17;75.55
68141;BME280;54941;52.220;104.306;2024-01-07T01:11:22;96273.00;;;-14.09;75.23
68141;BME280;54941;52.220;104.306;2024-01-07T01:13:48;96268.63;;;-14.23;75.88
68141;BME280;54941;52.220;104.306;2024-01-07T01:16:14;96274.66;;;-14.09;75.53
68141;BME280;54941;52.220;104.306;2024-01-07T01:18:41;96267.38;;;-14.17;75.74
68141;BME280;54941;52.220;104.306;2024-01-07T01:21:07;96272.88;;;-14.10;75.55
68141;BME280;54941;52.220;104.306;2024-01-07T01:23:33;96275.31;;;-14.12;75.81
68141;BME280;54941;52.220;104.306;2024-01-07T01:26:01;96272.00;;;-14.11;75.73
68141;BME280;54941;52.220;104.306;2024-01-07T01:28:27;96263.59;;;-13.98;75.50
68141;BME280;54941;52.220;104.306;2024-01-07T01:30:53;96258.41;;;-14.00;75.40
68141;BME280;54941;52.220;104.306;2024-01-07T01:33:19;96255.09;;;-13.99;75.33
68141;BME280;54941;52.220;104.306;2024-01-07T01:35:46;96253.44;;;-13.98;75.67
68141;BME280;54941;52.220;104.306;2024-01-07T01:38:12;96260.66;;;-13.91;75.33
68141;BME280;54941;52.220;104.306;2024-01-07T01:40:38;96255.19;;;-13.97;75.11
68141;BME280;54941;52.220;104.306;2024-01-07T01:43:06;96253.72;;;-13.94;75.16
68141;BME280;54941;52.220;104.306;2024-01-07T01:45:32;96257.72;;;-13.97;75.03
68141;BME280;54941;52.220;104.306;2024-01-07T01:47:59;96252.94;;;-13.93;74.78
68141;BME280;54941;52.220;104.306;2024-01-07T01:50:26;96250.94;;;-13.85;74.81
68141;BME280;54941;52.220;104.306;2024-01-07T01:52:55;96245.97;;;-13.83;75.13
68141;BME280;54941;52.220;104.306;2024-01-07T01:55:21;96234.34;;;-13.80;74.69
68141;BME280;54941;52.220;104.306;2024-01-07T01:57:48;96234.41;;;-13.92;74.83
68141;BME280;54941;52.220;104.306;2024-01-07T02:00:17;96221.16;;;-13.63;74.51
68141;BME280;54941;52.220;104.306;2024-01-07T02:02:43;96215.69;;;-13.56;74.26
68141;BME280;54941;52.220;104.306;2024-01-07T02:05:10;96224.19;;;-13.55;73.91
68141;BME280;54941;52.220;104.306;2024-01-07T02:07:36;96224.97;;;-13.56;73.70
68141;BME280;54941;52.220;104.306;2024-01-07T02:10:03;96220.19;;;-13.65;74.18
68141;BME280;54941;52.220;104.306;2024-01-07T02:12:30;96231.38;;;-13.36;73.76
68141;BME280;54941;52.220;104.306;2024-01-07T02:14:57;96223.97;;;-13.20;73.15
68141;BME280;54941;52.220;104.306;2024-01-07T02:17:24;96219.28;;;-13.27;73.01
68141;BME280;54941;52.220;104.306;2024-01-07T02:19:51;96216.53;;;-13.17;72.50
68141;BME280;54941;52.220;104.306;2024-01-07T02:22:17;96210.69;;;-13.03;72.36
68141;BME280;54941;52.220;104.306;2024-01-07T02:24:45;96213.81;;;-13.07;72.09
68141;BME280;54941;52.220;104.306;2024-01-07T02:27:11;96217.22;;;-13.06;72.40
68141;BME280;54941;52.220;104.306;2024-01-07T02:29:38;96217.72;;;-12.99;72.07
68141;BME280;54941;52.220;104.306;2024-01-07T02:32:05;96216.84;;;-12.86;71.49
68141;BME280;54941;52.220;104.306;2024-01-07T02:34:31;96216.63;;;-12.76;71.54
68141;BME280;54941;52.220;104.306;2024-01-07T02:36:58;96211.88;;;-12.71;71.43
68141;BME280;54941;52.220;104.306;2024-01-07T02:39:24;96207.16;;;-12.65;71.33
68141;BME280;54941;52.220;104.306;2024-01-07T02:41:52;96210.34;;;-12.41;70.40
68141;BME280;54941;52.220;104.306;2024-01-07T02:44:18;96212.19;;;-12.39;70.23
68141;BME280;54941;52.220;104.306;2024-01-07T02:46:44;96215.16;;;-12.46;70.37
68141;BME280;54941;52.220;104.306;2024-01-07T02:49:10;96213.09;;;-12.38;70.00
68141;BME280;54941;52.220;104.306;2024-01-07T02:51:37;96209.22;;;-12.18;69.81
68141;BME280;54941;52.220;104.306;2024-01-07T02:54:03;96203.66;;;-12.13;69.57
68141;BME280;54941;52.220;104.306;2024-01-07T02:56:29;96211.88;;;-12.17;69.56
68141;BME280;54941;52.220;104.306;2024-01-07T02:58:57;96207.03;;;-12.27;69.86
68141;BME280;54941;52.220;104.306;2024-01-07T03:01:24;96216.88;;;-12.18;70.02
68141;BME280;54941;52.220;104.306;2024-01-07T03:03:50;96213.19;;;-11.95;69.26
68141;BME280;54941;52.220;104.306;2024-01-07T03:06:16;96201.97;;;-11.84;69.13
68141;BME280;54941;52.220;104.306;2024-01-07T03:08:43;96199.34;;;-11.86;69.15
68141;BME280;54941;52.220;104.306;2024-01-07T03:11:09;96208.09;;;-11.95;69.00
68141;BME280;54941;52.220;104.306;2024-01-07T03:13:35;96213.84;;;-11.85;69.29
68141;BME280;54941;52.220;104.306;2024-01-07T03:16:04;96213.38;;;-11.78;68.92
68141;BME280;54941;52.220;104.306;2024-01-07T03:18:30;96227.75;;;-11.93;69.19
68141;BME280;54941;52.220;104.306;2024-01-07T03:20:56;96211.13;;;-11.58;68.24
68141;BME280;54941;52.220;104.306;2024-01-07T03:23:23;96213.44;;;-11.48;68.37
68141;BME280;54941;52.220;104.306;2024-01-07T03:25:49;96209.72;;;-11.68;68.51
68141;BME280;54941;52.220;104.306;2024-01-07T03:28:15;96211.91;;;-11.59;68.66
68141;BME280;54941;52.220;104.306;2024-01-07T03:30:42;96203.88;;;-11.52;68.65
68141;BME280;54941;52.220;104.306;2024-01-07T03:33:09;96208.22;;;-11.64;69.11
68141;BME280;54941;52.220;104.306;2024-01-07T03:35:36;96192.63;;;-11.56;68.79
68141;BME280;54941;52.220;104.306;2024-01-07T03:38:02;96199.09;;;-11.46;68.93
68141;BME280;54941;52.220;104.306;2024-01-07T03:40:29;96199.72;;;-11.50;69.24
68141;BME280;54941;52.220;104.306;2024-01-07T03:42:55;96196.25;;;-11.23;68.28
68141;BME280;54941;52.220;104.306;2024-01-07T03:45:21;96192.22;;;-11.34;68.33
68141;BME280;54941;52.220;104.306;2024-01-07T03:47:47;96198.53;;;-11.27;68.44
68141;BME280;54941;52.220;104.306;2024-01-07T03:50:15;96198.06;;;-11.35;68.65
68141;BME280;54941;52.220;104.306;2024-01-07T03:52:42;96197.91;;;-11.23;68.24
68141;BME280;54941;52.220;104.306;2024-01-07T03:55:08;96200.41;;;-11.10;68.11
68141;BME280;54941;52.220;104.306;2024-01-07T03:57:34;96194.13;;;-11.15;68.29
68141;BME280;54941;52.220;104.306;2024-01-07T04:00:00;96204.00;;;-11.06;67.64
68141;BME280;54941;52.220;104.306;2024-01-07T04:02:27;96198.34;;;-11.01;68.17
68141;BME280;54941;52.220;104.306;2024-01-07T04:04:56;96202.56;;;-11.01;67.65
68141;BME280;54941;52.220;104.306;2024-01-07T04:07:23;96197.63;;;-10.69;67.54
68141;BME280;54941;52.220;104.306;2024-01-07T04:09:50;96192.28;;;-10.88;67.77
68141;BME280;54941;52.220;104.306;2024-01-07T04:12:16;96185.81;;;-10.67;67.21
68141;BME280;54941;52.220;104.306;2024-01-07T04:14:43;96188.75;;;-10.44;66.46
68141;BME280;54941;52.220;104.306;2024-01-07T04:17:09;96193.69;;;-10.47;66.93
68141;BME280;54941;52.220;104.306;2024-01-07T04:19:36;96188.16;;;-10.55;67.38
68141;BME280;54941;52.220;104.306;2024-01-07T04:22:03;96197.38;;;-10.42;67.01
68141;BME280;54941;52.220;104.306;2024-01-07T04:24:31;96195.97;;;-10.37;66.31
68141;BME280;54941;52.220;104.306;2024-01-07T04:26:57;96192.72;;;-9.86;65.52
68141;BME280;54941;52.220;104.306;2024-01-07T04:29:24;96182.50;;;-9.86;65.57
68141;BME280;54941;52.220;104.306;2024-01-07T04:31:51;96181.94;;;-9.96;65.10
68141;BME280;54941;52.220;104.306;2024-01-07T04:34:17;96174.91;;;-9.84;64.97
68141;BME280;54941;52.220;104.306;2024-01-07T04:36:43;96168.94;;;-9.52;65.02
68141;BME280;54941;52.220;104.306;2024-01-07T04:39:09;96181.81;;;-9.83;65.19
68141;BME280;54941;52.220;104.306;2024-01-07T04:41:37;96181.81;;;-9.67;64.28
68141;BME280;54941;52.220;104.306;2024-01-07T04:44:03;96186.19;;;-9.64;64.95
68141;BME280;54941;52.220;104.306;2024-01-07T04:46:30;96183.56;;;-9.66;65.03
68141;BME280;54941;52.220;104.306;2024-01-07T04:48:59;96188.50;;;-9.53;64.75
68141;BME280;54941;52.220;104.306;2024-01-07T04:51:25;96180.03;;;-9.52;64.82
68141;BME280;54941;52.220;104.306;2024-01-07T04:53:51;96176.75;;;-9.49;64.88
68141;BME280;54941;52.220;104.306;2024-01-07T04:56:18;96171.09;;;-9.44;64.36
68141;BME280;54941;52.220;104.306;2024-01-07T04:58:45;96172.56;;;-9.31;64.28
68141;BME280;54941;52.220;104.306;2024-01-07T05:01:12;96167.53;;;-9.29;64.10
68141;BME280;54941;52.220;104.306;2024-01-07T05:03:38;96168.34;;;-9.30;63.96
68141;BME280;54941;52.220;104.306;2024-01-07T05:06:05;96165.75;;;-9.48;64.88
68141;BME280;54941;52.220;104.306;2024-01-07T05:08:31;96157.56;;;-9.41;64.43
68141;BME280;54941;52.220;104.306;2024-01-07T05:10:57;96163.63;;;-9.23;64.43
68141;BME280;54941;52.220;104.306;2024-01-07T05:13:23;96165.31;;;-9.23;64.50
68141;BME280;54941;52.220;104.306;2024-01-07T05:15:51;96170.41;;;-9.23;64.51
68141;BME280;54941;52.220;104.306;2024-01-07T05:18:17;96169.00;;;-9.34;64.91
68141;BME280;54941;52.220;104.306;2024-01-07T05:20:44;96161.53;;;-9.14;64.38
68141;BME280;54941;52.220;104.306;2024-01-07T05:23:10;96161.59;;;-9.12;64.89
68141;BME280;54941;52.220;104.306;2024-01-07T05:25:36;96161.63;;;-9.28;64.95
68141;BME280;54941;52.220;104.306;2024-01-07T05:28:03;96153.13;;;-9.11;64.90
68141;BME280;54941;52.220;104.306;2024-01-07T05:30:29;96153.00;;;-9.30;65.32
68141;BME280;54941;52.220;104.306;2024-01-07T05:32:57;96149.94;;;-9.23;65.42
68141;BME280;54941;52.220;104.306;2024-01-07T05:35:23;96155.94;;;-9.23;65.43
68141;BME280;54941;52.220;104.306;2024-01-07T05:37:50;96160.09;;;-8.91;64.77
68141;BME280;54941;52.220;104.306;2024-01-07T05:40:16;96154.00;;;-9.10;65.02
68141;BME280;54941;52.220;104.306;2024-01-07T05:42:42;96158.38;;;-9.08;65.22
68141;BME280;54941;52.220;104.306;2024-01-07T05:45:09;96161.53;;;-9.14;65.58
68141;BME280;54941;52.220;104.306;2024-01-07T05:47:35;96160.34;;;-9.20;65.75
68141;BME280;54941;52.220;104.306;2024-01-07T05:50:03;96159.03;;;-9.12;65.53
68141;BME280;54941;52.220;104.306;2024-01-07T05:52:31;96169.91;;;-9.16;65.54
68141;BME280;54941;52.220;104.306;2024-01-07T05:54:57;96159.78;;;-8.97;65.31
68141;BME280;54941;52.220;104.306;2024-01-07T05:57:23;96166.16;;;-8.89;64.77
68141;BME280;54941;52.220;104.306;2024-01-07T05:59:49;96173.94;;;-9.03;64.95
68141;BME280;54941;52.220;104.306;2024-01-07T06:02:16;96180.25;;;-8.97;65.14
68141;BME280;54941;52.220;104.306;2024-01-07T06:04:43;96179.59;;;-8.93;64.86
68141;BME280;54941;52.220;104.306;2024-01-07T06:07:11;96174.94;;;-8.48;64.08
68141;BME280;54941;52.220;104.306;2024-01-07T06:09:37;96181.09;;;-8.62;63.82
68141;BME280;54941;52.220;104.306;2024-01-07T06:12:04;96187.16;;;-8.60;63.38
68141;BME280;54941;52.220;104.306;2024-01-07T06:14:30;96194.69;;;-8.81;64.08
68141;BME280;54941;52.220;104.306;2024-01-07T06:16:56;96202.47;;;-8.62;63.68
68141;BME280;54941;52.220;104.306;2024-01-07T06:19:23;96212.84;;;-8.76;63.67
68141;BME280;54941;52.220;104.306;2024-01-07T06:21:49;96221.94;;;-8.65;63.27
68141;BME280;54941;52.220;104.306;2024-01-07T06:24:17;96234.94;;;-8.78;63.84
68141;BME280;54941;52.220;104.306;2024-01-07T06:26:43;96232.09;;;-8.49;63.34
68141;BME280;54941;52.220;104.306;2024-01-07T06:29:09;96239.16;;;-8.79;63.52
68141;BME280;54941;52.220;104.306;2024-01-07T06:31:35;96244.44;;;-8.76;63.60
68141;BME280;54941;52.220;104.306;2024-01-07T06:34:02;96253.13;;;-8.72;63.76
68141;BME280;54941;52.220;104.306;2024-01-07T06:36:28;96257.25;;;-8.76;63.84
68141;BME280;54941;52.220;104.306;2024-01-07T06:38:54;96259.81;;;-8.76;63.76
68141;BME280;54941;52.220;104.306;2024-01-07T06:41:22;96268.00;;;-8.65;64.09
68141;BME280;54941;52.220;104.306;2024-01-07T06:43:48;96265.47;;;-8.47;62.98
68141;BME280;54941;52.220;104.306;2024-01-07T06:46:15;96264.09;;;-8.41;63.20
68141;BME280;54941;52.220;104.306;2024-01-07T06:48:41;96262.91;;;-8.30;63.37
68141;BME280;54941;52.220;104.306;2024-01-07T06:51:07;96267.34;;;-8.26;63.92
68141;BME280;54941;52.220;104.306;2024-01-07T06:53:33;96276.78;;;-8.25;63.79
68141;BME280;54941;52.220;104.306;2024-01-07T06:55:59;96273.88;;;-8.50;63.89
68141;BME280;54941;52.220;104.306;2024-01-07T06:58:27;96276.72;;;-8.62;64.79
68141;BME280;54941;52.220;104.306;2024-01-07T07:00:54;96285.28;;;-8.61;65.20
68141;BME280;54941;52.220;104.306;2024-01-07T07:03:20;96285.63;;;-8.71;65.39
68141;BME280;54941;52.220;104.306;2024-01-07T07:05:46;96294.09;;;-8.72;65.10
68141;BME280;54941;52.220;104.306;2024-01-07T07:08:16;96318.88;;;-10.00;66.90
68141;BME280;54941;52.220;104.306;2024-01-07T07:10:42;96319.41;;;-10.66;67.46
68141;BME280;54941;52.220;104.306;2024-01-07T07:13:10;96340.19;;;-10.45;66.33
68141;BME280;54941;52.220;104.306;2024-01-07T07:15:39;96342.50;;;-10.65;67.28
68141;BME280;54941;52.220;104.306;2024-01-07T07:18:05;96354.38;;;-11.08;67.33
68141;BME280;54941;52.220;104.306;2024-01-07T07:20:32;96361.50;;;-11.02;67.35
68141;BME280;54941;52.220;104.306;2024-01-07T07:22:58;96370.09;;;-11.15;67.24
68141;BME280;54941;52.220;104.306;2024-01-07T07:25:24;96375.50;;;-11.10;66.23
68141;BME280;54941;52.220;104.306;2024-01-07T07:27:50;96384.97;;;-11.36;66.82
68141;BME280;54941;52.220;104.306;2024-01-07T07:30:17;96392.34;;;-11.40;67.22
68141;BME280;54941;52.220;104.306;2024-01-07T07:32:45;96391.75;;;-11.08;66.14
68141;BME280;54941;52.220;104.306;2024-01-07T07:35:12;96398.22;;;-11.13;64.71
68141;BME280;54941;52.220;104.306;2024-01-07T07:37:38;96413.25;;;-10.90;63.44
68141;BME280;54941;52.220;104.306;2024-01-07T07:40:05;96425.34;;;-11.29;62.69
68141;BME280;54941;52.220;104.306;2024-01-07T07:42:32;96424.31;;;-11.45;62.68
68141;BME280;54941;52.220;104.306;2024-01-07T07:44:58;96432.03;;;-11.31;62.91
68141;BME280;54941;52.220;104.306;2024-01-07T07:47:24;96442.38;;;-11.69;62.76
68141;BME280;54941;52.220;104.306;2024-01-07T07:49:52;96444.81;;;-11.70;62.74
68141;BME280;54941;52.220;104.306;2024-01-07T07:52:18;96452.75;;;-11.92;63.41
68141;BME280;54941;52.220;104.306;2024-01-07T07:54:44;96452.84;;;-11.78;63.00
68141;BME280;54941;52.220;104.306;2024-01-07T07:57:10;96466.19;;;-11.82;62.90
68141;BME280;54941;52.220;104.306;2024-01-07T07:59:37;96471.50;;;-11.92;62.87
68141;BME280;54941;52.220;104.306;2024-01-07T08:02:03;96481.56;;;-12.07;63.08
68141;BME280;54941;52.220;104.306;2024-01-07T08:04:30;96488.47;;;-12.30;63.82
68141;BME280;54941;52.220;104.306;2024-01-07T08:06:57;96499.78;;;-12.14;63.93
68141;BME280;54941;52.220;104.306;2024-01-07T08:09:24;96502.53;;;-11.97;63.73
68141;BME280;54941;52.220;104.306;2024-01-07T08:11:50;96506.03;;;-12.09;64.43
68141;BME280;54941;52.220;104.306;2024-01-07T08:14:18;96520.34;;;-12.11;64.17
68141;BME280;54941;52.220;104.306;2024-01-07T08:16:45;96523.56;;;-12.13;64.58
68141;BME280;54941;52.220;104.306;2024-01-07T08:19:11;96526.13;;;-12.13;64.68
68141;BME280;54941;52.220;104.306;2024-01-07T08:21:38;96532.25;;;-11.85;64.50
68141;BME280;54941;52.220;104.306;2024-01-07T08:24:06;96538.59;;;-11.78;64.18
68141;BME280;54941;52.220;104.306;2024-01-07T08:26:32;96541.44;;;-11.87;63.74
68141;BME280;54941;52.220;104.306;2024-01-07T08:28:58;96549.75;;;-12.02;64.38
68141;BME280;54941;52.220;104.306;2024-01-07T08:31:25;96554.53;;;-12.07;64.22
68141;BME280;54941;52.220;104.306;2024-01-07T08:33:51;96559.53;;;-12.09;64.74
68141;BME280;54941;52.220;104.306;2024-01-07T08:36:17;96551.44;;;-11.90;64.09
68141;BME280;54941;52.220;104.306;2024-01-07T08:38:43;96566.69;;;-12.03;64.83
68141;BME280;54941;52.220;104.306;2024-01-07T08:41:11;96560.81;;;-12.02;65.03
68141;BME280;54941;52.220;104.306;2024-01-07T08:43:38;96571.13;;;-12.25;65.07
68141;BME280;54941;52.220;104.306;2024-01-07T08:46:04;96581.06;;;-12.28;65.58
68141;BME280;54941;52.220;104.306;2024-01-07T08:48:31;96583.03;;;-12.38;65.78
68141;BME280;54941;52.220;104.306;2024-01-07T08:50:57;96587.88;;;-12.41;66.63
68141;BME280;54941;52.220;104.306;2024-01-07T08:53:23;96589.78;;;-12.13;66.08
68141;BME280;54941;52.220;104.306;2024-01-07T08:55:50;96604.56;;;-12.08;65.39
68141;BME280;54941;52.220;104.306;2024-01-07T08:58:18;96597.66;;;-12.22;64.77
68141;BME280;54941;52.220;104.306;2024-01-07T09:00:44;96601.81;;;-12.35;65.84
68141;BME280;54941;52.220;104.306;2024-01-07T09:03:10;96614.03;;;-12.55;66.63
68141;BME280;54941;52.220;104.306;2024-01-07T09:05:37;96617.47;;;-13.14;67.45
68141;BME280;54941;52.220;104.306;2024-01-07T09:08:04;96623.00;;;-13.32;68.66
68141;BME280;54941;52.220;104.306;2024-01-07T09:10:30;96626.94;;;-13.00;68.83
68141;BME280;54941;52.220;104.306;2024-01-07T09:12:56;96630.06;;;-12.92;68.73
68141;BME280;54941;52.220;104.306;2024-01-07T09:15:24;96627.81;;;-12.88;68.10
68141;BME280;54941;52.220;104.306;2024-01-07T09:17:51;96638.09;;;-12.75;67.64
68141;BME280;54941;52.220;104.306;2024-01-07T09:20:17;96646.19;;;-13.15;68.52
68141;BME280;54941;52.220;104.306;2024-01-07T09:22:44;96655.38;;;-13.17;68.09
68141;BME280;54941;52.220;104.306;2024-01-07T09:25:10;96667.22;;;-13.41;69.18
68141;BME280;54941;52.220;104.306;2024-01-07T09:27:36;96669.69;;;-13.19;69.52
68141;BME280;54941;52.220;104.306;2024-01-07T09:30:03;96677.84;;;-13.23;69.17
68141;BME280;54941;52.220;104.306;2024-01-07T09:32:33;96682.88;;;-13.12;68.76
68141;BME280;54941;52.220;104.306;2024-01-07T09:34:59;96680.72;;;-13.19;68.82
68141;BME280;54941;52.220;104.306;2024-01-07T09:37:26;96690.63;;;-13.10;68.72
68141;BME280;54941;52.220;104.306;2024-01-07T09:39:52;96690.00;;;-13.19;68.28
68141;BME280;54941;52.220;104.306;2024-01-07T09:42:18;96694.84;;;-13.34;68.87
68141;BME280;54941;52.220;104.306;2024-01-07T09:44:45;96698.34;;;-13.09;68.52
68141;BME280;54941;52.220;104.306;2024-01-07T09:47:13;96720.91;;;-13.13;68.17
68141;BME280;54941;52.220;104.306;2024-01-07T09:49:42;96717.94;;;-13.08;68.51
68141;BME280;54941;52.220;104.306;2024-01-07T09:52:10;96722.47;;;-13.04;67.99
68141;BME280;54941;52.220;104.306;2024-01-07T09:54:37;96730.31;;;-13.24;68.62
68141;BME280;54941;52.220;104.306;2024-01-07T09:57:04;96737.06;;;-12.89;68.01
68141;BME280;54941;52.220;104.306;2024-01-07T09:59:31;96740.59;;;-12.99;68.36
68141;BME280;54941;52.220;104.306;2024-01-07T10:01:57;96744.34;;;-13.17;68.40
68141;BME280;54941;52.220;104.306;2024-01-07T10:04:24;96736.19;;;-12.90;68.10
68141;BME280;54941;52.220;104.306;2024-01-07T10:06:53;96737.28;;;-12.75;67.45
68141;BME280;54941;52.220;104.306;2024-01-07T10:09:19;96733.97;;;-12.97;68.16
68141;BME280;54941;52.220;104.306;2024-01-07T10:11:45;96751.66;;;-12.75;67.68
68141;BME280;54941;52.220;104.306;2024-01-07T10:14:12;96750.00;;;-12.98;68.31
68141;BME280;54941;52.220;104.306;2024-01-07T10:16:38;96752.03;;;-12.71;67.72
68141;BME280;54941;52.220;104.306;2024-01-07T10:19:04;96753.69;;;-12.71;67.76
68141;BME280;54941;52.220;104.306;2024-01-07T10:21:31;96763.59;;;-12.74;68.11
68141;BME280;54941;52.220;104.306;2024-01-07T10:24:09;96769.16;;;-12.68;68.20
68141;BME280;54941;52.220;104.306;2024-01-07T10:26:35;96761.84;;;-12.63;68.20
68141;BME280;54941;52.220;104.306;2024-01-07T10:29:01;96772.78;;;-12.41;67.97
68141;BME280;54941;52.220;104.306;2024-01-07T10:31:28;96773.34;;;-12.57;69.06
68141;BME280;54941;52.220;104.306;2024-01-07T10:33:55;96777.78;;;-12.54;69.70
68141;BME280;54941;52.220;104.306;2024-01-07T10:36:22;96773.56;;;-12.54;70.28
68141;BME280;54941;52.220;104.306;2024-01-07T10:38:50;96782.31;;;-12.50;70.59
68141;BME280;54941;52.220;104.306;2024-01-07T10:41:19;96773.94;;;-12.49;70.21
68141;BME280;54941;52.220;104.306;2024-01-07T10:43:46;96790.59;;;-12.41;69.90
68141;BME280;54941;52.220;104.306;2024-01-07T10:46:14;96779.53;;;-12.42;70.43
68141;BME280;54941;52.220;104.306;2024-01-07T10:48:47;96785.00;;;-12.49;71.35
68141;BME280;54941;52.220;104.306;2024-01-07T10:51:20;96791.75;;;-12.61;72.12
68141;BME280;54941;52.220;104.306;2024-01-07T10:53:52;96796.47;;;-12.77;71.82
68141;BME280;54941;52.220;104.306;2024-01-07T10:56:23;96791.06;;;-12.70;72.03
68141;BME280;54941;52.220;104.306;2024-01-07T10:58:51;96803.19;;;-12.89;72.81
68141;BME280;54941;52.220;104.306;2024-01-07T11:01:18;96809.63;;;-12.94;73.19
68141;BME280;54941;52.220;104.306;2024-01-07T11:03:53;96808.09;;;-12.69;73.57
68141;BME280;54941;52.220;104.306;2024-01-07T11:06:27;96812.97;;;-12.72;72.78
68141;BME280;54941;52.220;104.306;2024-01-07T11:08:59;96810.94;;;-12.76;73.18
68141;BME280;54941;52.220;104.306;2024-01-07T11:11:35;96813.16;;;-12.81;73.61
68141;BME280;54941;52.220;104.306;2024-01-07T11:14:01;96813.06;;;-12.71;73.63
68141;BME280;54941;52.220;104.306;2024-01-07T11:16:43;96824.47;;;-12.66;74.03
68141;BME280;54941;52.220;104.306;2024-01-07T11:19:13;96821.91;;;-12.66;74.24
68141;BME280;54941;52.220;104.306;2024-01-07T11:21:39;96825.13;;;-12.56;74.05
68141;BME280;54941;52.220;104.306;2024-01-07T11:24:05;96832.78;;;-12.56;73.72
68141;BME280;54941;52.220;104.306;2024-01-07T11:26:34;96833.09;;;-12.40;74.14
68141;BME280;54941;52.220;104.306;2024-01-07T11:29:00;96838.94;;;-12.64;74.00
68141;BME280;54941;52.220;104.306;2024-01-07T11:31:45;96837.84;;;-12.56;74.47
68141;BME280;54941;52.220;104.306;2024-01-07T11:34:38;96847.47;;;-12.64;75.02
68141;BME280;54941;52.220;104.306;2024-01-07T11:37:07;96850.13;;;-12.51;74.75
68141;BME280;54941;52.220;104.306;2024-01-07T11:39:35;96855.66;;;-12.56;75.38
68141;BME280;54941;52.220;104.306;2024-01-07T11:42:06;96853.25;;;-12.55;75.49
68141;BME280;54941;52.220;104.306;2024-01-07T11:44:36;96861.00;;;-12.42;75.37
68141;BME280;54941;52.220;104.306;2024-01-07T11:47:02;96857.66;;;-12.41;75.45
68141;BME280;54941;52.220;104.306;2024-01-07T11:49:28;96861.44;;;-12.47;76.37
68141;BME280;54941;52.220;104.306;2024-01-07T11:51:55;96866.53;;;-12.35;76.26
68141;BME280;54941;52.220;104.306;2024-01-07T11:54:21;96872.06;;;-12.18;75.91
68141;BME280;54941;52.220;104.306;2024-01-07T11:56:47;96880.94;;;-12.24;76.19
68141;BME280;54941;52.220;104.306;2024-01-07T11:59:33;96874.50;;;-12.43;77.31
68141;BME280;54941;52.220;104.306;2024-01-07T12:02:00;96878.81;;;-12.42;77.62
68141;BME280;54941;52.220;104.306;2024-01-07T12:04:27;96886.66;;;-12.39;77.63
68141;BME280;54941;52.220;104.306;2024-01-07T12:06:53;96892.66;;;-12.50;77.95
68141;BME280;54941;52.220;104.306;2024-01-07T12:09:21;96891.44;;;-12.31;78.02
68141;BME280;54941;52.220;104.306;2024-01-07T12:11:50;96893.75;;;-12.34;77.82
68141;BME280;54941;52.220;104.306;2024-01-07T12:14:17;96893.09;;;-12.44;77.69
68141;BME280;54941;52.220;104.306;2024-01-07T12:16:48;96894.53;;;-12.35;77.51
68141;BME280;54941;52.220;104.306;2024-01-07T12:19:16;96903.03;;;-12.47;78.08
68141;BME280;54941;52.220;104.306;2024-01-07T12:21:42;96910.63;;;-12.70;79.28
68141;BME280;54941;52.220;104.306;2024-01-07T12:24:09;96914.59;;;-12.62;79.70
68141;BME280;54941;52.220;104.306;2024-01-07T12:26:35;96909.84;;;-12.69;79.79
68141;BME280;54941;52.220;104.306;2024-01-07T12:29:01;96916.59;;;-12.70;79.85
68141;BME280;54941;52.220;104.306;2024-01-07T12:31:28;96910.00;;;-12.56;79.70